Time;durP1;ratioP1;P1;durP2;ratioP2;P2;SDS_P1;SDS_P2;PMS_P1;PMS_P2;Temp;Humidity;BMP_temperature;BMP_pressure;BME280_temperature;BME280_humidity;BME280_pressure;Samples;Min_cycle;Max_cycle;Signal;HPM_P1;HPM_P2
2022/05/11 00:00:15;;;;;;;6.63;4.90;;;15.60;69.80;;;;;;5051684;28;20516;-63
2022/05/11 00:02:42;;;;;;;6.17;4.50;;;15.60;69.80;;;;;;5052426;28;20540;-63
2022/05/11 00:05:12;;;;;;;5.10;4.30;;;15.50;69.80;;;;;;5051673;28;20472;-63
2022/05/11 00:07:38;;;;;;;6.47;5.23;;;15.50;69.90;;;;;;5052497;28;20447;-63
2022/05/11 00:10:11;;;;;;;5.90;4.70;;;15.50;70.10;;;;;;5051485;28;20448;-63
2022/05/11 00:12:38;;;;;;;9.20;4.60;;;15.50;70.40;;;;;;5052435;28;20440;-63
2022/05/11 00:15:06;;;;;;;6.07;4.63;;;15.50;70.20;;;;;;5051497;28;20433;-63
2022/05/11 00:17:33;;;;;;;5.80;5.10;;;15.50;70.40;;;;;;5052457;28;20445;-63
2022/05/11 00:19:59;;;;;;;8.47;5.67;;;15.40;70.10;;;;;;5051679;28;20441;-63
2022/05/11 00:22:26;;;;;;;10.80;6.20;;;15.30;70.70;;;;;;5051418;28;20484;-63
2022/05/11 00:24:53;;;;;;;8.43;6.27;;;15.20;71.10;;;;;;5052400;28;20482;-63
2022/05/11 00:27:22;;;;;;;13.50;6.60;;;15.10;71.60;;;;;;5051568;28;20444;-64
2022/05/11 00:29:48;;;;;;;9.87;6.30;;;15.10;72.00;;;;;;5052324;28;20424;-63
2022/05/11 00:32:15;;;;;;;10.93;5.70;;;15.00;72.20;;;;;;5051366;28;20528;-63
2022/05/11 00:34:42;;;;;;;10.10;6.30;;;14.90;72.50;;;;;;5051442;28;20528;-63
2022/05/11 00:37:09;;;;;;;8.40;5.23;;;14.90;72.70;;;;;;5051985;28;20974;-63
2022/05/11 00:39:36;;;;;;;9.90;6.50;;;14.90;72.70;;;;;;5052906;28;20445;-63
2022/05/11 00:42:03;;;;;;;10.87;6.00;;;14.90;72.40;;;;;;5056058;28;20535;-63
2022/05/11 00:44:32;;;;;;;7.33;6.17;;;14.90;72.30;;;;;;5055205;28;20443;-63
2022/05/11 00:47:02;;;;;;;5.50;4.50;;;14.90;72.50;;;;;;5055808;28;20466;-63
2022/05/11 00:49:34;;;;;;;7.40;5.03;;;14.90;72.90;;;;;;5055169;28;20498;-62
2022/05/11 00:52:06;;;;;;;5.67;4.50;;;14.80;73.00;;;;;;5056002;28;20448;-63
2022/05/11 00:54:37;;;;;;;8.17;6.30;;;14.80;73.20;;;;;;5055522;28;20471;-63
2022/05/11 00:57:07;;;;;;;10.40;8.27;;;14.80;73.20;;;;;;5055831;28;20575;-63
2022/05/11 00:59:39;;;;;;;12.70;7.97;;;14.70;73.50;;;;;;5055215;28;20448;-63
2022/05/11 01:02:08;;;;;;;14.23;7.60;;;14.70;73.40;;;;;;5056073;28;20841;-63
2022/05/11 01:04:38;;;;;;;22.13;11.13;;;14.70;73.70;;;;;;5055165;28;20461;-62
2022/05/11 01:07:08;;;;;;;14.57;7.23;;;14.60;73.90;;;;;;5055711;28;20445;-63
2022/05/11 01:09:34;;;;;;;7.47;5.60;;;14.60;74.30;;;;;;5054853;28;20491;-63
2022/05/11 01:12:02;;;;;;;8.87;4.47;;;14.50;74.20;;;;;;5055733;28;20515;-63
2022/05/11 01:14:34;;;;;;;8.27;5.83;;;14.40;74.50;;;;;;5055065;28;20525;-63
2022/05/11 01:17:03;;;;;;;7.80;5.83;;;14.40;74.60;;;;;;5055677;28;20583;-62
2022/05/11 01:19:33;;;;;;;23.17;12.07;;;14.40;74.90;;;;;;5054577;28;20433;-63
2022/05/11 01:22:07;;;;;;;26.77;12.00;;;14.40;74.90;;;;;;5055524;28;20779;-63
2022/05/11 01:24:47;;;;;;;23.50;11.07;;;14.30;75.10;;;;;;5054740;28;20450;-63
2022/05/11 01:27:30;;;;;;;20.77;9.80;;;14.40;75.60;;;;;;5055349;28;20779;-62
2022/05/11 01:30:00;;;;;;;11.73;6.93;;;14.30;75.10;;;;;;5035286;28;20867;-63
2022/05/11 01:32:28;;;;;;;10.20;6.03;;;14.20;75.40;;;;;;5035339;28;20513;-63
2022/05/11 01:35:04;;;;;;;7.90;5.67;;;14.20;75.70;;;;;;5035115;28;20544;-63
2022/05/11 01:37:33;;;;;;;6.87;5.27;;;14.10;75.80;;;;;;5035255;28;20563;-68
2022/05/11 01:40:01;;;;;;;6.37;5.33;;;14.10;76.00;;;;;;5054051;28;20528;-63
2022/05/11 01:42:28;;;;;;;7.50;5.00;;;14.00;76.60;;;;;;5055245;28;20491;-64
2022/05/11 01:44:55;;;;;;;6.00;4.33;;;14.00;77.00;;;;;;5054082;28;20846;-63
2022/05/11 01:47:21;;;;;;;7.40;5.60;;;14.00;77.20;;;;;;5055253;28;20475;-64
2022/05/11 01:49:48;;;;;;;6.07;4.80;;;14.00;77.10;;;;;;5054165;28;20437;-63
2022/05/11 01:52:15;;;;;;;8.13;4.90;;;14.00;77.20;;;;;;5053734;28;20449;-63
2022/05/11 01:54:43;;;;;;;6.97;4.90;;;14.10;77.00;;;;;;5052926;28;20834;-63
2022/05/11 01:57:12;;;;;;;6.30;4.60;;;14.10;76.60;;;;;;5054385;28;20489;-67
2022/05/11 01:59:39;;;;;;;7.63;5.70;;;14.20;76.30;;;;;;5054756;28;20824;-63
2022/05/11 02:02:06;;;;;;;6.87;4.97;;;14.20;75.90;;;;;;5053949;28;20472;-63
2022/05/11 02:10:04;;;;;;;5.20;3.97;;;14.20;75.80;;;;;;5050369;28;20445;-63
2022/05/11 02:12:32;;;;;;;5.30;4.40;;;14.20;76.00;;;;;;5054563;28;20440;-63
2022/05/11 02:14:59;;;;;;;7.13;3.80;;;14.30;75.60;;;;;;5053508;28;20520;-63
2022/05/11 02:17:26;;;;;;;6.50;3.90;;;14.20;75.80;;;;;;5054239;28;20489;-65
2022/05/11 02:19:52;;;;;;;7.60;4.33;;;14.20;76.00;;;;;;5053474;28;20445;-63
2022/05/11 02:22:19;;;;;;;5.30;3.80;;;14.20;75.90;;;;;;5054512;28;20460;-63
2022/05/11 02:24:46;;;;;;;6.00;4.37;;;14.30;76.30;;;;;;5053542;28;20529;-63
2022/05/11 02:27:13;;;;;;;4.40;3.87;;;14.20;75.50;;;;;;5054039;28;20439;-63
2022/05/11 02:29:41;;;;;;;5.97;4.30;;;14.20;75.60;;;;;;5052209;28;20455;-65
2022/05/11 02:32:08;;;;;;;7.33;3.93;;;14.30;76.80;;;;;;5053850;28;20949;-63
2022/05/11 02:37:20;;;;;;;5.43;3.53;;;14.30;75.80;;;;;;5053868;28;20922;-64
2022/05/11 02:39:48;;;;;;;4.47;3.70;;;14.40;75.50;;;;;;5053356;28;20432;-63
2022/05/11 02:42:17;;;;;;;5.00;4.17;;;14.30;75.50;;;;;;5053249;28;21045;-63
2022/05/11 02:44:45;;;;;;;5.67;3.87;;;14.30;75.40;;;;;;5053062;28;20433;-63
2022/05/11 02:47:13;;;;;;;4.10;3.43;;;14.20;75.30;;;;;;5053680;28;20484;-63
2022/05/11 02:49:40;;;;;;;7.80;4.90;;;14.20;75.80;;;;;;5052149;28;20449;-63
2022/05/11 02:52:07;;;;;;;10.63;4.97;;;14.30;75.80;;;;;;5052596;28;20512;-65
2022/05/11 02:54:34;;;;;;;7.07;5.13;;;14.30;75.60;;;;;;5051989;28;20484;-63
2022/05/11 02:57:01;;;;;;;7.60;4.80;;;14.30;75.70;;;;;;5053221;28;20560;-63
2022/05/11 02:59:28;;;;;;;6.17;4.47;;;14.30;75.30;;;;;;5053072;28;20432;-64
2022/05/11 03:01:57;;;;;;;7.80;4.33;;;14.30;75.50;;;;;;5053620;28;20433;-63
2022/05/11 03:04:25;;;;;;;5.37;4.47;;;14.20;74.90;;;;;;5053081;28;20425;-63
2022/05/11 03:06:52;;;;;;;5.70;4.03;;;14.10;74.90;;;;;;5053676;28;20919;-63
2022/05/11 03:09:19;;;;;;;6.20;3.63;;;14.10;75.30;;;;;;5053184;28;20484;-63
2022/05/11 03:11:46;;;;;;;7.57;5.80;;;14.10;75.50;;;;;;5053700;28;20479;-63
2022/05/11 03:14:14;;;;;;;7.23;5.30;;;14.00;75.80;;;;;;5053244;28;20473;-65
2022/05/11 03:16:43;;;;;;;10.57;8.30;;;13.90;75.90;;;;;;5053174;28;20494;-63
2022/05/11 03:19:11;;;;;;;7.90;5.97;;;13.90;76.20;;;;;;5053267;28;20437;-63
2022/05/11 03:21:38;;;;;;;5.93;5.30;;;13.90;76.30;;;;;;5052648;28;20441;-64
2022/05/11 03:24:05;;;;;;;5.77;5.17;;;13.90;76.40;;;;;;5053623;28;20447;-63
2022/05/11 03:26:34;;;;;;;7.20;4.03;;;13.90;76.10;;;;;;5052389;28;20487;-63
2022/05/11 03:29:02;;;;;;;5.33;4.30;;;13.90;75.80;;;;;;5053302;28;20440;-64
2022/05/11 03:31:29;;;;;;;6.47;4.70;;;13.90;76.00;;;;;;5052359;28;20445;-63
2022/05/11 03:36:47;;;;;;;5.10;3.50;;;13.80;76.00;;;;;;5021554;28;20473;-63
2022/05/11 03:39:15;;;;;;;12.57;4.87;;;13.80;76.40;;;;;;5033316;28;20456;-63
2022/05/11 03:41:42;;;;;;;4.70;3.23;;;13.70;76.30;;;;;;5049687;28;20516;-63
2022/05/11 03:44:08;;;;;;;6.47;4.20;;;13.60;76.70;;;;;;5052017;28;20813;-63
2022/05/11 03:46:35;;;;;;;6.53;4.00;;;13.60;76.90;;;;;;5052490;28;20469;-63
2022/05/11 03:49:02;;;;;;;6.30;4.00;;;13.60;77.60;;;;;;5051040;28;20784;-63
2022/05/11 03:51:29;;;;;;;5.80;4.20;;;13.60;77.90;;;;;;5051041;28;20491;-64
2022/05/11 03:53:58;;;;;;;5.60;3.97;;;13.60;78.00;;;;;;5050876;28;20437;-69
2022/05/11 03:56:25;;;;;;;8.87;4.80;;;13.60;77.90;;;;;;5032540;28;20794;-63
2022/05/11 03:58:53;;;;;;;5.10;4.10;;;13.60;77.80;;;;;;5046838;28;20506;-63
2022/05/11 04:01:20;;;;;;;5.00;4.03;;;13.60;77.60;;;;;;5052773;28;20433;-65
2022/05/11 04:03:47;;;;;;;6.33;4.40;;;13.60;77.60;;;;;;5051873;28;20437;-65
2022/05/11 04:06:14;;;;;;;7.37;5.33;;;13.50;77.70;;;;;;5052789;28;20468;-65
2022/05/11 04:08:42;;;;;;;7.37;4.90;;;13.50;77.70;;;;;;5052406;28;20494;-66
2022/05/11 04:11:11;;;;;;;6.83;6.10;;;13.50;78.30;;;;;;5052427;28;20532;-65
2022/05/11 04:13:39;;;;;;;7.20;5.80;;;13.50;78.90;;;;;;5052312;28;20447;-63
2022/05/11 04:16:07;;;;;;;8.90;4.53;;;13.50;78.90;;;;;;5051963;28;21005;-63
2022/05/11 04:18:34;;;;;;;7.00;4.40;;;13.50;78.90;;;;;;5052677;28;20480;-67
2022/05/11 04:21:01;;;;;;;5.97;3.73;;;13.50;79.20;;;;;;5052041;28;20444;-62
2022/05/11 04:23:28;;;;;;;6.37;4.20;;;13.50;79.00;;;;;;5052628;28;20452;-62
2022/05/11 04:25:56;;;;;;;6.20;4.50;;;13.50;79.00;;;;;;5052134;28;20769;-63
2022/05/11 04:28:24;;;;;;;6.53;4.20;;;13.60;79.60;;;;;;5052840;28;20445;-63
2022/05/11 04:30:51;;;;;;;5.73;4.10;;;13.60;80.00;;;;;;5051970;28;20444;-64
2022/05/11 04:33:19;;;;;;;6.37;4.40;;;13.60;80.50;;;;;;5052728;28;20444;-65
2022/05/11 04:35:46;;;;;;;7.13;4.93;;;13.60;80.30;;;;;;5051898;28;20459;-65
2022/05/11 04:38:12;;;;;;;6.90;4.60;;;13.60;80.10;;;;;;5052228;28;20491;-65
2022/05/11 04:40:39;;;;;;;5.73;5.10;;;13.60;80.10;;;;;;5050861;28;20437;-66
2022/05/11 04:43:08;;;;;;;7.03;4.17;;;13.60;80.10;;;;;;5051998;28;20524;-64
2022/05/11 04:45:38;;;;;;;7.60;5.00;;;13.70;80.60;;;;;;5052708;28;20441;-65
2022/05/11 04:48:05;;;;;;;8.47;5.20;;;13.70;80.40;;;;;;5051578;28;20514;-65
2022/05/11 04:50:32;;;;;;;7.60;5.30;;;13.80;80.50;;;;;;5052501;28;20469;-65
2022/05/11 04:52:59;;;;;;;8.50;4.83;;;13.80;80.50;;;;;;5051247;28;20441;-65
2022/05/11 04:55:26;;;;;;;5.60;4.43;;;13.90;81.20;;;;;;5052618;28;20436;-65
2022/05/11 04:57:52;;;;;;;5.63;3.70;;;14.00;81.80;;;;;;5050969;28;20567;-65
2022/05/11 05:00:20;;;;;;;6.83;4.67;;;14.10;82.40;;;;;;5052566;28;20788;-65
2022/05/11 05:02:48;;;;;;;7.83;4.13;;;14.20;82.80;;;;;;5051328;28;20486;-65
2022/05/11 05:05:17;;;;;;;5.63;4.60;;;14.30;82.70;;;;;;5052018;28;20572;-65
2022/05/11 05:07:44;;;;;;;6.37;4.43;;;14.30;82.30;;;;;;5050762;28;20445;-65
2022/05/11 05:10:14;;;;;;;4.67;3.67;;;14.50;82.30;;;;;;5052441;28;20532;-65
2022/05/11 05:12:41;;;;;;;5.63;3.73;;;14.50;82.20;;;;;;5049619;28;20973;-65
2022/05/11 05:15:10;;;;;;;5.63;3.80;;;14.60;82.50;;;;;;5049494;28;20603;-65
2022/05/11 05:17:37;;;;;;;4.67;3.47;;;14.70;82.50;;;;;;5050183;28;20524;-65
2022/05/11 05:20:08;;;;;;;10.30;4.80;;;14.70;82.40;;;;;;5050030;28;20445;-64
2022/05/11 05:22:35;;;;;;;10.13;4.27;;;14.80;82.50;;;;;;5050137;28;20438;-66
2022/05/11 05:25:02;;;;;;;4.53;3.67;;;14.90;82.70;;;;;;5049360;28;20448;-65
2022/05/11 05:27:29;;;;;;;8.07;4.53;;;15.10;83.00;;;;;;5050493;28;20859;-66
2022/05/11 05:32:43;;;;;;;6.63;4.63;;;15.30;83.70;;;;;;5051751;28;20507;-65
2022/05/11 05:35:16;;;;;;;5.13;3.60;;;15.40;84.10;;;;;;5055278;28;20882;-67
2022/05/11 05:37:43;;;;;;;4.83;4.33;;;15.50;84.40;;;;;;5053717;28;20523;-65
2022/05/11 05:40:11;;;;;;;5.10;3.83;;;15.60;83.90;;;;;;5054959;28;20441;-65
2022/05/11 05:42:39;;;;;;;9.60;3.57;;;15.80;83.30;;;;;;5052028;28;20540;-65
2022/05/11 05:45:08;;;;;;;4.33;3.27;;;15.90;82.40;;;;;;5054792;28;20797;-65
2022/05/11 05:47:36;;;;;;;6.50;3.97;;;16.00;82.50;;;;;;5052407;28;20469;-65
2022/05/11 05:50:03;;;;;;;5.43;3.47;;;16.10;81.40;;;;;;5054627;28;20439;-65
2022/05/11 05:52:32;;;;;;;4.67;3.10;;;16.20;78.40;;;;;;5049626;28;20528;-65
2022/05/11 05:55:00;;;;;;;8.40;3.20;;;16.30;77.80;;;;;;5054170;28;20436;-65
2022/05/11 05:57:27;;;;;;;4.50;3.20;;;16.40;77.10;;;;;;5051068;28;20472;-67
2022/05/11 05:59:54;;;;;;;4.07;2.97;;;16.50;74.70;;;;;;5053595;28;20437;-66
2022/05/11 06:02:21;;;;;;;3.70;3.30;;;16.60;73.20;;;;;;5053161;28;20441;-65
2022/05/11 06:04:50;;;;;;;9.53;3.30;;;16.70;71.80;;;;;;5053042;28;20535;-65
2022/05/11 06:07:19;;;;;;;3.07;2.50;;;16.80;70.70;;;;;;5054993;28;20781;-66
2022/05/11 06:09:47;;;;;;;5.00;3.50;;;16.90;70.60;;;;;;5053822;28;20441;-66
2022/05/11 06:12:16;;;;;;;5.03;2.90;;;17.00;70.30;;;;;;5054472;28;20950;-65
2022/05/11 06:14:43;;;;;;;3.67;2.57;;;17.10;70.30;;;;;;5054209;28;20441;-65
2022/05/11 06:17:14;;;;;;;5.77;3.10;;;17.20;68.30;;;;;;5054691;28;20480;-65
2022/05/11 06:19:41;;;;;;;4.60;3.20;;;17.30;68.90;;;;;;5054069;28;20480;-65
2022/05/11 06:22:09;;;;;;;4.80;2.77;;;17.40;67.30;;;;;;5054617;28;20932;-65
2022/05/11 06:24:36;;;;;;;4.40;2.60;;;17.60;66.90;;;;;;5053972;28;20441;-66
2022/05/11 06:27:04;;;;;;;2.90;2.40;;;17.70;67.10;;;;;;5054857;28;20501;-66
2022/05/11 06:29:32;;;;;;;4.90;3.43;;;17.80;66.90;;;;;;5049646;28;20524;-70
2022/05/11 06:31:58;;;;;;;4.97;3.80;;;18.00;67.70;;;;;;5054027;28;20452;-66
2022/05/11 06:34:25;;;;;;;7.33;4.00;;;18.10;69.20;;;;;;5053626;28;20537;-65
2022/05/11 06:36:52;;;;;;;6.67;3.83;;;18.30;70.90;;;;;;5053886;28;20437;-66
2022/05/11 06:39:19;;;;;;;3.90;3.20;;;18.40;73.40;;;;;;5050401;28;20488;-66
2022/05/11 06:41:46;;;;;;;6.80;3.70;;;18.60;72.70;;;;;;5052701;28;20507;-65
2022/05/11 06:44:14;;;;;;;5.57;3.57;;;18.70;72.80;;;;;;5054123;28;20498;-66
2022/05/11 06:46:41;;;;;;;5.73;3.97;;;18.80;72.60;;;;;;5053757;28;21029;-65
2022/05/11 06:49:08;;;;;;;3.97;2.67;;;19.00;72.20;;;;;;5053448;28;20524;-65
2022/05/11 06:51:35;;;;;;;4.50;3.10;;;19.10;70.90;;;;;;5053949;28;20461;-65
2022/05/11 06:59:33;;;;;;;5.67;3.47;;;19.50;66.80;;;;;;5053591;28;20483;-64
2022/05/11 07:02:03;;;;;;;4.70;2.87;;;19.70;63.50;;;;;;5053575;28;20436;-66
2022/05/11 07:04:33;;;;;;;4.70;3.13;;;19.80;62.30;;;;;;5053914;28;20433;-63
2022/05/11 07:07:01;;;;;;;9.90;3.00;;;19.90;62.80;;;;;;5053927;28;20440;-63
2022/05/11 07:09:32;;;;;;;5.00;3.30;;;20.00;61.80;;;;;;5053726;28;20441;-64
2022/05/11 07:12:20;;;;;;;3.77;2.63;;;20.20;61.30;;;;;;5053730;28;20796;-64
2022/05/11 07:14:51;;;;;;;3.50;2.73;;;20.30;59.50;;;;;;5053836;28;20440;-63
2022/05/11 07:17:26;;;;;;;5.67;3.30;;;20.50;59.10;;;;;;5053580;28;20828;-64
2022/05/11 07:19:54;;;;;;;8.97;2.50;;;20.60;58.30;;;;;;5053785;28;20443;-64
2022/05/11 07:22:21;;;;;;;4.83;2.93;;;20.80;57.80;;;;;;5053693;28;20444;-65
2022/05/11 07:24:48;;;;;;;5.47;3.97;;;21.00;58.10;;;;;;5053618;28;20469;-66
2022/05/11 07:27:15;;;;;;;4.37;3.10;;;21.20;58.30;;;;;;5053451;28;20548;-63
2022/05/11 07:29:43;;;;;;;4.20;2.70;;;21.30;58.10;;;;;;5053081;28;20527;-64
2022/05/11 07:32:12;;;;;;;4.40;2.83;;;21.50;57.90;;;;;;5052820;28;20475;-67
2022/05/11 07:34:39;;;;;;;4.30;2.90;;;21.70;58.40;;;;;;5053282;28;20519;-64
2022/05/11 07:37:06;;;;;;;6.70;3.10;;;21.80;56.10;;;;;;5053353;28;20451;-64
2022/05/11 07:39:33;;;;;;;4.40;2.43;;;22.00;56.50;;;;;;5052741;28;20557;-64
2022/05/11 07:42:00;;;;;;;3.67;2.57;;;22.20;54.70;;;;;;5052634;28;20527;-64
2022/05/11 07:44:28;;;;;;;4.30;3.27;;;22.30;52.90;;;;;;5053073;28;20942;-63
2022/05/11 07:46:55;;;;;;;6.83;2.73;;;22.50;53.30;;;;;;5052773;28;20469;-64
2022/05/11 07:49:23;;;;;;;4.87;2.93;;;22.60;54.40;;;;;;5052300;28;20836;-64
2022/05/11 07:51:52;;;;;;;7.77;2.40;;;22.70;52.50;;;;;;5053065;28;20443;-64
2022/05/11 07:54:19;;;;;;;6.03;2.40;;;22.90;53.70;;;;;;5053096;28;20473;-64
2022/05/11 08:02:15;;;;;;;4.93;2.40;;;23.40;53.80;;;;;;5053060;28;20502;-64
2022/05/11 08:04:43;;;;;;;4.93;2.90;;;23.60;52.70;;;;;;5052859;28;20447;-64
2022/05/11 08:07:11;;;;;;;4.73;2.70;;;23.80;51.70;;;;;;5052806;28;20484;-64
2022/05/11 08:09:38;;;;;;;3.20;2.20;;;24.00;52.60;;;;;;5052729;28;20436;-63
2022/05/11 08:12:06;;;;;;;4.63;2.23;;;24.10;50.50;;;;;;5052784;28;20522;-64
2022/05/11 08:14:33;;;;;;;5.57;3.10;;;24.30;50.80;;;;;;5052846;28;20528;-64
2022/05/11 08:17:00;;;;;;;3.87;2.50;;;24.50;48.90;;;;;;5052910;28;20429;-64
2022/05/11 08:19:28;;;;;;;7.53;3.17;;;24.60;49.00;;;;;;5052776;28;20525;-64
2022/05/11 08:21:57;;;;;;;3.57;3.10;;;24.70;49.50;;;;;;5052472;28;20918;-65
2022/05/11 08:24:24;;;;;;;3.60;2.57;;;24.90;49.30;;;;;;5052943;28;20429;-64
2022/05/11 08:26:51;;;;;;;4.27;2.97;;;25.00;48.70;;;;;;5052819;28;20514;-65
2022/05/11 08:34:44;;;;;;;6.60;3.73;;;25.30;47.90;;;;;;5052230;28;20781;-64
2022/05/11 08:37:13;;;;;;;4.80;3.17;;;25.40;45.20;;;;;;5052834;28;20445;-64
2022/05/11 08:39:41;;;;;;;4.73;3.57;;;25.60;47.40;;;;;;5052459;28;20492;-63
2022/05/11 08:42:08;;;;;;;3.43;2.77;;;25.80;47.80;;;;;;5052154;28;20435;-64
2022/05/11 08:44:39;;;;;;;2.90;2.50;;;26.00;46.70;;;;;;5052402;28;20851;-64
2022/05/11 08:47:13;;;;;;;3.30;2.67;;;26.20;46.90;;;;;;5052356;28;20494;-64
2022/05/11 08:49:52;;;;;;;3.50;2.60;;;26.40;47.10;;;;;;5052427;28;20945;-64
2022/05/11 08:52:31;;;;;;;3.47;2.73;;;26.60;46.20;;;;;;5052171;28;20516;-64
2022/05/11 08:55:08;;;;;;;5.70;2.50;;;26.70;44.70;;;;;;5052388;28;20421;-64
2022/05/11 08:57:36;;;;;;;5.10;2.60;;;26.90;44.90;;;;;;5052335;28;20535;-64
2022/05/11 09:00:08;;;;;;;3.83;2.63;;;27.00;43.40;;;;;;5053226;28;20480;-64
2022/05/11 09:02:52;;;;;;;3.20;2.53;;;27.10;43.30;;;;;;5056237;28;20455;-64
2022/05/11 09:05:22;;;;;;;4.50;3.03;;;27.30;43.20;;;;;;5056066;28;20786;-64
2022/05/11 09:07:53;;;;;;;3.30;2.40;;;27.40;43.00;;;;;;5056302;28;20863;-64
2022/05/11 09:10:25;;;;;;;8.00;3.00;;;27.50;43.20;;;;;;5055810;28;20520;-66
2022/05/11 09:12:54;;;;;;;3.90;2.40;;;27.60;42.00;;;;;;5055935;28;20441;-65
2022/05/11 09:15:21;;;;;;;2.83;2.30;;;27.70;40.90;;;;;;5055971;28;20525;-64
2022/05/11 09:17:48;;;;;;;5.80;3.03;;;27.80;41.30;;;;;;5056187;28;20824;-64
2022/05/11 09:20:18;;;;;;;3.53;2.70;;;27.80;40.30;;;;;;5055732;28;20508;-65
2022/05/11 09:23:01;;;;;;;3.87;2.63;;;27.90;40.00;;;;;;5055846;28;20494;-65
2022/05/11 09:25:31;;;;;;;4.73;2.77;;;27.90;40.30;;;;;;5055678;28;20523;-65
2022/05/11 09:28:14;;;;;;;3.57;2.50;;;27.90;41.10;;;;;;5055739;28;20468;-64
2022/05/11 09:30:57;;;;;;;4.40;2.87;;;28.00;39.80;;;;;;5055811;28;20539;-64
2022/05/11 09:33:26;;;;;;;3.43;2.70;;;28.00;39.80;;;;;;5055704;28;20506;-64
2022/05/11 09:35:53;;;;;;;3.03;2.50;;;28.00;39.10;;;;;;5055215;28;20536;-64
2022/05/11 09:38:37;;;;;;;3.00;2.00;;;28.10;39.70;;;;;;5055550;28;20484;-64
2022/05/11 09:41:12;;;;;;;3.23;2.63;;;28.10;38.70;;;;;;5055259;28;20493;-64
2022/05/11 09:43:43;;;;;;;4.40;2.77;;;28.10;38.30;;;;;;5055478;28;20435;-64
2022/05/11 09:46:23;;;;;;;5.23;2.60;;;28.10;37.70;;;;;;5055198;28;20472;-64
2022/05/11 09:49:00;;;;;;;6.47;2.87;;;28.20;38.70;;;;;;5055509;28;20898;-63
2022/05/11 09:51:33;;;;;;;3.70;2.93;;;28.20;37.90;;;;;;5054805;28;20424;-65
2022/05/11 09:54:23;;;;;;;6.77;2.63;;;28.20;37.90;;;;;;5054945;28;20444;-64
2022/05/11 09:56:57;;;;;;;7.43;3.10;;;28.30;37.70;;;;;;5054734;28;20432;-64
2022/05/11 09:59:26;;;;;;;3.60;2.73;;;28.30;37.10;;;;;;5055087;28;20488;-64
2022/05/11 10:02:01;;;;;;;2.90;2.00;;;28.20;35.50;;;;;;5055221;28;20781;-64
2022/05/11 10:04:34;;;;;;;3.43;2.90;;;28.20;35.80;;;;;;5055060;28;20439;-65
2022/05/11 10:07:02;;;;;;;3.40;2.50;;;28.20;35.00;;;;;;5055084;28;20486;-66
2022/05/11 10:09:35;;;;;;;3.60;2.30;;;28.20;36.40;;;;;;5054885;28;21080;-64
2022/05/11 10:12:05;;;;;;;3.30;2.20;;;28.20;36.20;;;;;;5054046;28;20748;-64
2022/05/11 10:23:06;;;;;;;3.57;2.20;;;28.30;36.10;;;;;;5054856;28;20513;-64
2022/05/11 10:25:39;;;;;;;3.20;2.30;;;28.40;35.30;;;;;;5054839;28;20439;-64
2022/05/11 10:28:19;;;;;;;3.13;2.50;;;28.50;34.80;;;;;;5054763;28;21009;-64
2022/05/11 10:30:54;;;;;;;3.63;2.80;;;28.60;35.20;;;;;;5054598;28;20437;-64
2022/05/11 10:33:57;;;;;;;7.30;3.40;;;28.70;35.30;;;;;;5054923;28;20433;-64
2022/05/11 10:36:33;;;;;;;4.13;2.60;;;28.80;35.10;;;;;;5053953;28;20433;-64
2022/05/11 10:39:21;;;;;;;4.50;3.60;;;28.80;35.70;;;;;;5054246;28;20909;-63
2022/05/11 10:41:54;;;;;;;6.87;3.70;;;28.90;35.00;;;;;;5054298;28;20546;-65
2022/05/11 10:44:48;;;;;;;5.10;3.20;;;29.00;34.10;;;;;;5053999;28;20468;-64
2022/05/11 10:47:29;;;;;;;3.47;2.57;;;29.10;34.30;;;;;;5054260;28;20495;-64
2022/05/11 10:50:06;;;;;;;4.70;2.10;;;29.20;34.40;;;;;;5054135;28;20484;-64
2022/05/11 10:53:00;;;;;;;9.33;3.00;;;29.30;32.90;;;;;;5054149;28;20480;-64
2022/05/11 10:55:35;;;;;;;3.33;2.40;;;29.30;32.00;;;;;;5054028;28;20488;-65
2022/05/11 10:58:13;;;;;;;3.97;2.03;;;29.40;33.20;;;;;;5054248;28;20519;-64
2022/05/11 11:00:45;;;;;;;3.10;1.93;;;29.50;32.30;;;;;;5054067;28;20444;-64
2022/05/11 11:03:49;;;;;;;3.03;2.20;;;29.50;32.50;;;;;;5054067;28;20440;-64
2022/05/11 11:09:36;;;;;;;4.23;2.80;;;29.60;32.10;;;;;;5043260;28;20473;-64
2022/05/11 11:12:09;;;;;;;6.67;2.83;;;29.70;32.20;;;;;;5053214;28;20451;-64
2022/05/11 11:14:42;;;;;;;5.20;4.70;;;29.80;31.40;;;;;;5053736;28;20985;-64
2022/05/11 11:17:13;;;;;;;2.70;2.20;;;29.90;30.90;;;;;;5053433;28;20436;-63
2022/05/11 11:19:44;;;;;;;4.73;2.37;;;30.00;30.50;;;;;;5036977;28;20454;-67
2022/05/11 11:22:11;;;;;;;5.00;3.20;;;30.10;30.70;;;;;;5036889;28;20433;-63
2022/05/11 11:24:42;;;;;;;4.50;2.63;;;30.10;30.50;;;;;;5052839;28;20440;-64
2022/05/11 11:27:09;;;;;;;5.77;3.00;;;30.20;30.80;;;;;;5051335;28;20515;-64
2022/05/11 11:29:38;;;;;;;4.43;2.43;;;30.20;31.70;;;;;;5052721;28;20483;-63
2022/05/11 11:32:14;;;;;;;4.60;2.23;;;30.20;32.10;;;;;;5049015;28;20513;-69
2022/05/11 11:34:45;;;;;;;3.27;2.40;;;30.30;31.60;;;;;;5032702;28;20441;-63
2022/05/11 11:37:43;;;;;;;4.20;2.63;;;30.20;30.00;;;;;;5044991;28;20520;-64
2022/05/11 11:40:23;;;;;;;3.53;2.70;;;30.30;31.70;;;;;;5040824;28;20484;-63
2022/05/11 11:42:51;;;;;;;3.90;2.67;;;30.40;31.00;;;;;;5049667;28;20989;-63
2022/05/11 11:45:52;;;;;;;2.93;2.40;;;30.40;32.20;;;;;;5052620;28;20445;-63
2022/05/11 11:48:25;;;;;;;2.70;2.00;;;30.40;30.50;;;;;;5043075;28;20455;-64
2022/05/11 11:50:55;;;;;;;5.57;4.90;;;30.40;29.10;;;;;;5052932;28;21057;-63
2022/05/11 11:53:27;;;;;;;4.67;3.70;;;30.40;29.80;;;;;;5052977;28;20524;-63
2022/05/11 11:55:54;;;;;;;5.03;2.60;;;30.40;30.50;;;;;;5052616;28;20460;-65
2022/05/11 11:58:29;;;;;;;5.10;4.07;;;30.40;30.70;;;;;;5053125;28;20437;-63
2022/05/11 12:01:08;;;;;;;6.87;2.80;;;30.40;31.10;;;;;;5053059;28;20440;-64
2022/05/11 12:03:42;;;;;;;3.10;2.20;;;30.40;31.00;;;;;;5052847;28;20439;-64
2022/05/11 12:17:28;;;;;;;3.37;2.00;;;30.10;28.80;;;;;;5050840;28;20931;-64
2022/05/11 12:20:06;;;;;;;3.20;2.07;;;30.10;30.40;;;;;;5052871;28;20523;-64
2022/05/11 12:22:38;;;;;;;3.10;2.10;;;30.00;30.00;;;;;;5052615;28;20498;-64
2022/05/11 12:25:17;;;;;;;4.73;2.27;;;29.80;29.50;;;;;;5052500;28;20479;-63
2022/05/11 12:27:44;;;;;;;5.17;2.60;;;29.90;29.90;;;;;;5050546;28;20764;-64
2022/05/11 12:30:18;;;;;;;5.00;2.60;;;29.90;30.30;;;;;;5052533;28;20484;-63
2022/05/11 12:32:53;;;;;;;3.50;2.47;;;30.00;31.10;;;;;;5052678;28;20495;-64
2022/05/11 12:35:26;;;;;;;4.13;2.57;;;30.00;30.80;;;;;;5054054;28;20471;-63
2022/05/11 12:37:58;;;;;;;5.37;2.30;;;30.00;30.80;;;;;;5056743;28;20535;-64
2022/05/11 12:40:26;;;;;;;2.90;2.37;;;30.00;31.10;;;;;;5056629;28;20437;-63
2022/05/11 12:42:55;;;;;;;4.20;2.07;;;30.00;29.90;;;;;;5056420;28;20436;-64
2022/05/11 12:45:27;;;;;;;4.33;2.57;;;29.90;29.90;;;;;;5056001;28;20477;-64
2022/05/11 12:47:56;;;;;;;5.10;2.13;;;29.90;30.40;;;;;;5056440;28;20460;-63
2022/05/11 12:50:28;;;;;;;3.43;2.20;;;30.00;29.90;;;;;;5056293;28;20484;-65
2022/05/11 12:53:07;;;;;;;4.70;2.10;;;29.90;30.10;;;;;;5056437;28;20432;-64
2022/05/11 12:55:37;;;;;;;2.97;2.20;;;29.90;29.60;;;;;;5055983;28;20451;-64
2022/05/11 12:58:05;;;;;;;3.27;2.50;;;29.80;29.90;;;;;;5056338;28;20432;-64
2022/05/11 13:00:34;;;;;;;2.30;1.70;;;29.80;31.60;;;;;;5055900;28;20480;-64
2022/05/11 13:03:01;;;;;;;6.40;2.13;;;29.70;30.90;;;;;;5055881;28;20934;-64
2022/05/11 13:05:32;;;;;;;5.33;2.23;;;29.60;29.00;;;;;;5056061;28;20437;-64
2022/05/11 13:08:03;;;;;;;2.90;2.10;;;29.50;30.00;;;;;;5056127;28;20476;-64
2022/05/11 13:10:33;;;;;;;4.30;2.20;;;29.60;29.50;;;;;;5055941;28;20637;-63
2022/05/11 13:13:01;;;;;;;2.50;2.07;;;29.60;27.70;;;;;;5055652;28;20472;-64
2022/05/11 13:15:35;;;;;;;2.93;1.97;;;29.50;26.60;;;;;;5055964;28;20528;-63
2022/05/11 13:18:02;;;;;;;6.40;3.80;;;29.20;26.40;;;;;;5055882;28;20433;-63
2022/05/11 13:20:35;;;;;;;5.80;2.77;;;29.10;27.40;;;;;;5055686;28;20437;-64
2022/05/11 13:23:03;;;;;;;2.93;2.60;;;29.10;29.20;;;;;;5055415;28;20437;-64
2022/05/11 13:25:46;;;;;;;2.83;2.00;;;29.20;29.30;;;;;;5055707;28;20502;-64
2022/05/11 13:28:22;;;;;;;5.80;2.13;;;29.20;29.70;;;;;;5055685;28;20455;-63
2022/05/11 13:30:49;;;;;;;3.60;2.20;;;29.30;30.60;;;;;;5055755;28;20492;-63
2022/05/11 13:33:29;;;;;;;3.67;2.00;;;29.30;29.50;;;;;;5055774;28;20472;-63
2022/05/11 13:36:18;;;;;;;3.03;2.10;;;29.30;29.30;;;;;;5055761;28;20432;-64
2022/05/11 13:38:51;;;;;;;3.70;2.73;;;29.30;29.50;;;;;;5055590;28;20494;-63
2022/05/11 13:41:23;;;;;;;4.03;2.27;;;29.30;29.00;;;;;;5055446;28;20531;-63
2022/05/11 13:43:53;;;;;;;2.90;1.80;;;29.30;29.20;;;;;;5055687;28;20495;-64
2022/05/11 13:46:37;;;;;;;5.30;2.20;;;29.30;28.80;;;;;;5054523;28;20467;-64
2022/05/11 13:49:24;;;;;;;5.80;2.50;;;29.30;29.20;;;;;;5054335;28;20456;-63
2022/05/11 13:51:52;;;;;;;4.73;2.77;;;29.20;28.70;;;;;;5055298;28;20543;-63
2022/05/11 13:54:23;;;;;;;3.20;2.20;;;29.20;29.20;;;;;;5055138;28;20449;-64